Time;durP1;ratioP1;P1;durP2;ratioP2;P2;SDS_P1;SDS_P2;PMS_P1;PMS_P2;Temp;Humidity;BMP_temperature;BMP_pressure;BME280_temperature;BME280_humidity;BME280_pressure;Samples;Min_cycle;Max_cycle;Signal;HPM_P1;HPM_P2
2022/07/01 00:01:36;;;;;;;5.28;1.77;;;15.40;99.90;;;;;;5048464;28;20051;-82
2022/07/01 00:04:02;;;;;;;5.20;2.00;;;15.40;99.90;;;;;;5041564;28;20127;-82
2022/07/01 00:06:28;;;;;;;8.45;2.13;;;15.30;99.90;;;;;;5058655;28;20072;-82
2022/07/01 00:08:54;;;;;;;8.55;2.00;;;15.30;99.90;;;;;;5035029;28;20056;-83
2022/07/01 00:11:20;;;;;;;3.33;1.73;;;15.40;99.90;;;;;;5035309;28;20479;-81
2022/07/01 00:13:46;;;;;;;3.90;2.00;;;15.40;99.90;;;;;;5042349;28;20063;-81
2022/07/01 00:16:11;;;;;;;3.03;1.55;;;15.40;99.90;;;;;;5047840;28;20036;-81
2022/07/01 00:18:37;;;;;;;3.08;1.70;;;15.40;99.90;;;;;;5054849;28;20041;-81
2022/07/01 00:21:03;;;;;;;4.03;1.90;;;15.30;99.90;;;;;;5053907;28;20063;-82
2022/07/01 00:23:29;;;;;;;4.40;1.50;;;15.40;99.90;;;;;;5025680;28;20101;-82
2022/07/01 00:25:54;;;;;;;4.15;1.95;;;15.40;99.90;;;;;;5040908;28;20476;-81
2022/07/01 00:28:20;;;;;;;4.97;1.90;;;15.40;99.90;;;;;;5057778;28;20131;-82
2022/07/01 00:30:46;;;;;;;6.03;2.22;;;15.40;99.90;;;;;;5055666;28;20076;-82
2022/07/01 00:33:12;;;;;;;2.40;1.63;;;15.40;99.90;;;;;;5049309;28;20097;-81
2022/07/01 00:35:38;;;;;;;3.53;1.70;;;15.40;99.90;;;;;;5022477;28;20508;-82
2022/07/01 00:38:04;;;;;;;2.80;1.70;;;15.40;99.90;;;;;;5027293;28;20048;-82
2022/07/01 00:40:29;;;;;;;5.97;1.80;;;15.40;99.90;;;;;;5057511;28;20150;-81
2022/07/01 00:42:55;;;;;;;5.53;1.75;;;15.40;99.90;;;;;;5055928;28;20512;-82
2022/07/01 00:45:21;;;;;;;4.60;1.98;;;15.40;99.90;;;;;;5037717;28;20045;-81
2022/07/01 00:47:47;;;;;;;4.78;2.10;;;15.30;99.90;;;;;;5037294;28;20052;-82
2022/07/01 00:50:15;;;;;;;5.88;2.03;;;15.30;99.90;;;;;;5070638;28;20076;-83
2022/07/01 00:52:42;;;;;;;2.30;1.75;;;15.40;99.90;;;;;;5049791;28;20037;-81
2022/07/01 00:55:10;;;;;;;4.00;2.00;;;15.40;99.90;;;;;;5057670;28;20055;-83
2022/07/01 00:57:37;;;;;;;3.35;1.80;;;15.40;99.90;;;;;;5038132;28;20044;-81
2022/07/01 01:00:06;;;;;;;3.90;1.63;;;15.30;99.90;;;;;;5047841;28;20037;-82
2022/07/01 01:02:32;;;;;;;2.47;1.52;;;15.30;99.90;;;;;;5051792;28;20078;-81
2022/07/01 01:04:57;;;;;;;3.53;1.63;;;15.30;99.90;;;;;;5039241;28;20104;-82
2022/07/01 01:07:24;;;;;;;3.00;1.42;;;15.30;99.90;;;;;;5037629;28;20059;-83
2022/07/01 01:09:50;;;;;;;2.05;1.30;;;15.30;99.90;;;;;;5047331;28;20072;-83
2022/07/01 01:12:17;;;;;;;1.70;1.00;;;15.30;99.90;;;;;;5039107;28;20126;-82
2022/07/01 01:14:50;;;;;;;1.15;0.75;;;15.30;99.90;;;;;;5013482;28;20075;-82
2022/07/01 01:17:17;;;;;;;2.80;1.15;;;15.20;99.90;;;;;;5053931;28;20109;-81
2022/07/01 01:19:43;;;;;;;2.58;1.00;;;15.20;99.90;;;;;;5017404;28;20099;-82
2022/07/01 01:22:10;;;;;;;1.60;1.00;;;15.20;99.90;;;;;;5034897;28;20117;-81
2022/07/01 01:24:37;;;;;;;1.00;0.80;;;15.20;99.90;;;;;;5073338;28;20051;-82
2022/07/01 01:27:06;;;;;;;1.55;0.90;;;15.20;99.90;;;;;;5045944;28;20051;-83
2022/07/01 01:29:32;;;;;;;2.13;1.20;;;15.20;99.90;;;;;;5056779;28;20036;-82
2022/07/01 01:31:58;;;;;;;1.88;0.80;;;15.30;99.90;;;;;;5054895;28;20104;-82
2022/07/01 01:34:24;;;;;;;2.47;0.90;;;15.30;99.90;;;;;;5056889;28;20064;-81
2022/07/01 01:36:51;;;;;;;1.75;0.98;;;15.30;99.90;;;;;;5076163;28;20048;-82
2022/07/01 01:39:17;;;;;;;1.77;0.82;;;15.30;99.90;;;;;;5058517;28;20089;-81
2022/07/01 01:41:44;;;;;;;2.65;1.13;;;15.30;99.90;;;;;;5044133;28;20040;-82
2022/07/01 01:44:11;;;;;;;1.70;0.93;;;15.30;99.90;;;;;;5074960;28;20060;-82
2022/07/01 01:46:37;;;;;;;3.25;1.05;;;15.30;99.90;;;;;;5056498;28;20049;-82
2022/07/01 01:49:04;;;;;;;2.58;1.00;;;15.30;99.90;;;;;;5070833;28;20052;-82
2022/07/01 01:51:30;;;;;;;1.35;0.90;;;15.40;99.90;;;;;;5048229;28;20044;-82
2022/07/01 01:53:56;;;;;;;3.03;1.05;;;15.40;99.90;;;;;;5069190;28;20111;-82
2022/07/01 01:56:22;;;;;;;4.70;1.10;;;15.40;99.90;;;;;;5020918;28;20052;-82
2022/07/01 01:58:49;;;;;;;2.50;1.13;;;15.40;99.90;;;;;;5053165;28;20120;-82
2022/07/01 02:01:16;;;;;;;1.85;1.23;;;15.40;99.90;;;;;;5063189;28;20056;-81
2022/07/01 02:03:44;;;;;;;2.58;1.08;;;15.40;99.90;;;;;;5033702;28;20041;-81
2022/07/01 02:06:10;;;;;;;2.10;1.45;;;15.40;99.90;;;;;;5060972;28;20044;-81
2022/07/01 02:08:39;;;;;;;3.33;1.30;;;15.40;99.90;;;;;;5075055;28;20056;-81
2022/07/01 02:11:06;;;;;;;1.98;1.17;;;15.40;99.90;;;;;;5061030;28;20037;-81
2022/07/01 02:13:32;;;;;;;1.90;1.40;;;15.40;99.90;;;;;;5041296;28;20070;-82
2022/07/01 02:15:58;;;;;;;2.65;1.50;;;15.40;99.90;;;;;;5034659;28;20131;-81
2022/07/01 02:18:24;;;;;;;2.75;1.40;;;15.40;99.90;;;;;;5025988;28;20049;-81
2022/07/01 02:20:50;;;;;;;2.08;1.60;;;15.40;99.90;;;;;;5042655;28;20044;-81
2022/07/01 02:23:16;;;;;;;2.20;1.55;;;15.30;99.90;;;;;;5049385;28;20048;-81
2022/07/01 02:25:43;;;;;;;1.70;1.58;;;15.30;99.90;;;;;;5060517;28;20108;-81
2022/07/01 02:28:09;;;;;;;2.00;1.55;;;15.30;99.90;;;;;;5077020;28;20052;-82
2022/07/01 02:30:36;;;;;;;3.80;1.42;;;15.30;99.90;;;;;;5077405;28;20076;-81
2022/07/01 02:33:02;;;;;;;3.20;1.50;;;15.30;99.90;;;;;;5075597;28;20057;-80
2022/07/01 02:35:29;;;;;;;1.85;1.52;;;15.20;99.90;;;;;;5041721;28;20051;-80
2022/07/01 02:37:54;;;;;;;4.05;1.90;;;15.20;99.90;;;;;;5042121;28;20052;-81
2022/07/01 02:40:20;;;;;;;1.88;1.52;;;15.20;99.90;;;;;;5040515;28;21111;-81
2022/07/01 02:42:46;;;;;;;3.92;1.67;;;15.20;99.90;;;;;;5031275;28;20420;-83
2022/07/01 02:45:12;;;;;;;1.88;1.67;;;15.20;99.90;;;;;;5041849;28;20083;-81
2022/07/01 02:47:40;;;;;;;2.67;1.75;;;15.20;99.90;;;;;;5036348;28;20040;-81
2022/07/01 02:50:11;;;;;;;2.13;1.75;;;15.20;99.90;;;;;;5060329;28;20123;-81
2022/07/01 02:52:38;;;;;;;4.30;2.10;;;15.20;99.90;;;;;;5040743;28;20100;-81
2022/07/01 02:55:06;;;;;;;2.00;1.80;;;15.20;99.90;;;;;;5055744;28;20104;-82
2022/07/01 02:57:32;;;;;;;2.63;2.40;;;15.20;99.90;;;;;;5065207;28;20067;-82
2022/07/01 02:59:58;;;;;;;2.75;2.25;;;15.20;99.90;;;;;;5043380;28;20044;-81
2022/07/01 03:02:24;;;;;;;3.13;2.05;;;15.10;99.90;;;;;;5049034;28;20041;-82
2022/07/01 03:04:52;;;;;;;2.47;2.08;;;15.20;99.90;;;;;;5060127;28;20041;-81
2022/07/01 03:07:18;;;;;;;3.03;2.05;;;15.20;99.90;;;;;;5059711;28;20040;-82
2022/07/01 03:09:45;;;;;;;2.90;2.20;;;15.20;99.90;;;;;;5034085;28;20052;-81
2022/07/01 03:12:34;;;;;;;3.22;2.45;;;15.10;99.90;;;;;;5053977;28;20044;-82
2022/07/01 03:15:09;;;;;;;5.22;2.67;;;15.10;99.90;;;;;;5053189;28;20049;-82
2022/07/01 03:17:36;;;;;;;3.33;2.92;;;15.10;99.90;;;;;;5059015;28;20056;-82
2022/07/01 03:20:03;;;;;;;4.68;3.13;;;15.10;99.90;;;;;;5059630;28;20049;-81
2022/07/01 03:22:30;;;;;;;4.45;2.70;;;15.10;99.90;;;;;;5075908;28;20044;-81
2022/07/01 03:24:57;;;;;;;4.90;2.80;;;15.10;99.90;;;;;;5025371;28;20895;-82
2022/07/01 03:27:23;;;;;;;3.85;3.33;;;15.10;99.90;;;;;;5076501;28;20087;-81
2022/07/01 03:29:49;;;;;;;5.20;3.50;;;15.10;99.90;;;;;;5039367;28;20040;-81
2022/07/01 03:32:15;;;;;;;4.95;3.03;;;15.10;99.90;;;;;;5044483;28;20112;-81
2022/07/01 03:34:43;;;;;;;3.60;3.22;;;15.10;99.90;;;;;;5041040;28;20111;-81
2022/07/01 03:37:10;;;;;;;4.85;3.65;;;15.10;99.90;;;;;;5056474;28;20411;-81
2022/07/01 03:39:37;;;;;;;5.30;4.53;;;15.00;99.90;;;;;;5038452;28;20045;-81
2022/07/01 03:42:05;;;;;;;5.63;4.93;;;15.10;99.90;;;;;;5055654;28;20056;-82
2022/07/01 03:44:31;;;;;;;9.55;5.32;;;15.00;99.90;;;;;;5068556;28;20053;-82
2022/07/01 03:46:57;;;;;;;7.68;5.30;;;15.00;99.90;;;;;;5073011;28;20056;-81
2022/07/01 03:49:23;;;;;;;5.32;4.78;;;15.00;99.90;;;;;;5023045;28;20057;-82
2022/07/01 03:51:49;;;;;;;8.45;5.65;;;15.10;99.90;;;;;;5054090;28;20045;-81
2022/07/01 03:54:30;;;;;;;8.27;6.35;;;15.10;99.90;;;;;;5052094;28;20044;-81
2022/07/01 03:57:02;;;;;;;9.18;7.47;;;15.00;99.90;;;;;;5059458;28;20044;-82
2022/07/01 03:59:29;;;;;;;13.85;9.43;;;15.00;99.90;;;;;;5057499;28;20052;-81
2022/07/01 04:01:56;;;;;;;9.50;8.48;;;15.10;99.90;;;;;;5049616;28;20090;-82
2022/07/01 04:04:23;;;;;;;14.40;9.80;;;15.00;99.90;;;;;;5053257;28;20064;-81
2022/07/01 04:06:49;;;;;;;15.27;10.55;;;15.00;99.90;;;;;;5070369;28;20040;-82
2022/07/01 04:09:16;;;;;;;16.88;11.00;;;15.00;99.90;;;;;;5051719;28;20123;-81
2022/07/01 04:11:44;;;;;;;20.25;11.85;;;15.10;99.90;;;;;;5055719;28;20033;-81
2022/07/01 04:14:10;;;;;;;16.10;12.00;;;15.00;99.90;;;;;;5071857;28;20060;-81
2022/07/01 04:16:36;;;;;;;18.48;12.13;;;15.00;99.90;;;;;;5057706;28;20054;-80
2022/07/01 04:19:02;;;;;;;19.65;12.82;;;15.00;99.90;;;;;;5074418;28;20051;-80
2022/07/01 04:24:13;;;;;;;23.80;14.00;;;15.00;99.90;;;;;;5058231;28;20072;-80
2022/07/01 04:26:40;;;;;;;21.77;14.63;;;15.00;99.90;;;;;;5047589;28;20115;-81
2022/07/01 04:29:07;;;;;;;24.05;15.00;;;14.90;99.90;;;;;;5045614;28;20053;-82
2022/07/01 04:31:34;;;;;;;25.95;15.73;;;14.90;99.90;;;;;;5039973;28;20044;-79
2022/07/01 04:34:00;;;;;;;25.15;17.00;;;14.90;99.90;;;;;;5057939;28;20061;-84
2022/07/01 04:36:26;;;;;;;28.48;17.38;;;15.00;99.90;;;;;;5074734;28;20048;-84
2022/07/01 04:38:52;;;;;;;31.70;19.13;;;14.90;99.90;;;;;;5015177;28;20041;-85
2022/07/01 04:44:02;;;;;;;30.83;19.17;;;14.90;99.90;;;;;;5061425;28;20051;-84
2022/07/01 04:46:27;;;;;;;31.85;20.88;;;14.90;99.90;;;;;;5050859;28;20143;-83
2022/07/01 04:48:54;;;;;;;22.70;14.18;;;14.90;99.90;;;;;;5038779;28;20048;-86
2022/07/01 04:51:20;;;;;;;30.52;20.73;;;15.10;99.90;;;;;;5041534;28;20041;-86
2022/07/01 04:53:46;;;;;;;29.48;17.95;;;15.20;99.90;;;;;;5029091;28;20116;-85
2022/07/01 04:56:11;;;;;;;24.27;15.73;;;15.40;99.90;;;;;;5040725;28;20113;-85
2022/07/01 04:58:37;;;;;;;32.33;20.13;;;15.60;99.90;;;;;;5038890;28;20054;-86
2022/07/01 05:01:03;;;;;;;28.35;17.88;;;15.60;99.90;;;;;;5068687;28;20044;-85
2022/07/01 05:03:28;;;;;;;22.80;15.20;;;15.60;99.90;;;;;;5023322;28;20048;-87
2022/07/01 05:05:54;;;;;;;30.48;19.17;;;15.50;99.90;;;;;;5022507;28;20068;-87
2022/07/01 05:08:20;;;;;;;31.67;20.83;;;15.40;99.90;;;;;;5042601;28;20052;-86
2022/07/01 05:10:45;;;;;;;25.25;15.88;;;15.50;99.90;;;;;;5041657;28;20069;-87
2022/07/01 05:13:11;;;;;;;29.52;20.10;;;15.50;99.90;;;;;;5038452;28;20048;-87
2022/07/01 05:15:37;;;;;;;29.08;20.10;;;15.70;99.90;;;;;;5041015;28;20041;-86
2022/07/01 05:23:31;;;;;;;32.03;21.02;;;15.70;99.90;;;;;;5064154;28;20052;-86
2022/07/01 05:25:57;;;;;;;30.38;18.58;;;15.70;99.90;;;;;;5042596;28;20408;-87
2022/07/01 05:28:22;;;;;;;33.70;19.90;;;15.60;99.90;;;;;;5051634;28;20044;-86
2022/07/01 05:30:48;;;;;;;28.08;18.80;;;15.80;99.90;;;;;;5022432;28;20052;-87
2022/07/01 05:33:14;;;;;;;32.58;20.67;;;15.70;99.90;;;;;;5052821;28;20047;-88
2022/07/01 05:35:39;;;;;;;32.17;18.90;;;15.90;99.90;;;;;;5015354;28;20048;-88
2022/07/01 05:38:05;;;;;;;30.48;19.27;;;15.70;99.90;;;;;;5061461;28;20052;-87
2022/07/01 05:40:31;;;;;;;34.88;20.33;;;15.70;99.90;;;;;;5047149;28;20049;-87
2022/07/01 05:42:56;;;;;;;33.92;21.35;;;15.80;99.90;;;;;;5034624;28;20508;-89
2022/07/01 05:45:22;;;;;;;31.35;20.25;;;15.80;99.90;;;;;;5047403;28;20048;-87
2022/07/01 05:47:48;;;;;;;28.48;18.05;;;15.90;99.90;;;;;;5031574;28;20147;-87
2022/07/01 05:50:14;;;;;;;27.83;18.15;;;16.10;99.90;;;;;;5028552;28;20101;-87
2022/07/01 05:52:39;;;;;;;29.38;19.08;;;16.20;99.90;;;;;;5037178;28;20041;-80
2022/07/01 05:55:05;;;;;;;31.77;20.33;;;16.30;99.90;;;;;;5035760;28;20649;-86
2022/07/01 05:57:31;;;;;;;31.48;20.63;;;16.30;99.90;;;;;;5051547;28;20131;-80
2022/07/01 05:59:56;;;;;;;27.63;19.75;;;16.40;99.90;;;;;;5057265;28;20118;-77
2022/07/01 06:02:22;;;;;;;30.80;20.73;;;16.30;99.90;;;;;;5057240;28;20041;-78
2022/07/01 06:04:48;;;;;;;25.58;17.92;;;16.40;99.90;;;;;;5043596;28;20033;-79
2022/07/01 06:07:14;;;;;;;29.80;20.27;;;16.40;99.90;;;;;;5050758;28;20091;-80
2022/07/01 06:09:39;;;;;;;27.25;18.48;;;16.30;99.90;;;;;;5039106;28;20033;-80
2022/07/01 06:12:05;;;;;;;29.83;21.35;;;16.40;99.90;;;;;;5033592;28;20052;-80
2022/07/01 06:14:32;;;;;;;30.50;19.58;;;16.30;99.90;;;;;;5035759;28;20154;-79
2022/07/01 06:16:57;;;;;;;33.22;22.48;;;16.30;99.90;;;;;;5026290;28;20041;-80
2022/07/01 06:19:23;;;;;;;27.30;18.15;;;16.30;99.90;;;;;;5051774;28;20116;-79
2022/07/01 06:21:49;;;;;;;31.48;22.38;;;16.30;99.90;;;;;;5056126;28;20033;-79
2022/07/01 06:24:14;;;;;;;30.75;21.63;;;16.30;99.90;;;;;;5021788;28;20519;-80
2022/07/01 06:26:40;;;;;;;32.03;22.17;;;16.20;99.90;;;;;;5051962;28;20041;-80
2022/07/01 06:29:06;;;;;;;32.33;21.80;;;16.20;99.90;;;;;;5067699;28;20048;-80
2022/07/01 06:31:33;;;;;;;36.78;24.48;;;16.20;99.90;;;;;;5033740;28;20508;-84
2022/07/01 06:34:00;;;;;;;34.17;23.52;;;16.10;99.90;;;;;;5048005;28;20440;-74
2022/07/01 06:36:25;;;;;;;31.75;22.42;;;16.00;99.90;;;;;;5036235;28;20063;-74
2022/07/01 06:38:51;;;;;;;32.78;22.00;;;16.00;99.90;;;;;;5047284;28;20057;-74
2022/07/01 06:41:26;;;;;;;33.83;22.48;;;16.00;99.90;;;;;;5030697;28;20039;-81
2022/07/01 06:43:56;;;;;;;31.60;22.55;;;16.00;99.90;;;;;;5033498;28;20045;-82
2022/07/01 06:46:22;;;;;;;33.97;22.45;;;16.00;99.90;;;;;;5031706;28;20040;-81
2022/07/01 06:48:48;;;;;;;35.63;24.25;;;16.00;99.90;;;;;;5046974;28;20536;-83
2022/07/01 06:51:14;;;;;;;33.08;23.15;;;16.00;99.90;;;;;;5051209;28;20064;-83
2022/07/01 06:53:40;;;;;;;34.00;23.73;;;16.00;99.90;;;;;;5048688;28;20044;-83
2022/07/01 06:56:06;;;;;;;30.60;23.17;;;16.10;99.90;;;;;;5052328;28;20059;-82
2022/07/01 06:58:32;;;;;;;33.05;23.60;;;16.10;99.90;;;;;;5050103;28;20044;-82
2022/07/01 07:00:58;;;;;;;34.63;24.27;;;16.10;99.90;;;;;;5035513;28;20036;-83
2022/07/01 07:03:23;;;;;;;34.38;24.38;;;16.10;99.90;;;;;;5036703;28;20048;-83
2022/07/01 07:05:49;;;;;;;32.58;23.90;;;16.00;99.90;;;;;;5036328;28;20118;-81
2022/07/01 07:08:15;;;;;;;32.70;23.70;;;16.10;99.90;;;;;;5049166;28;20067;-80
2022/07/01 07:10:41;;;;;;;37.33;24.98;;;16.00;99.90;;;;;;5048829;28;20059;-79
2022/07/01 07:13:06;;;;;;;35.67;24.63;;;16.00;99.90;;;;;;5050935;28;20410;-80
2022/07/01 07:15:32;;;;;;;34.80;24.80;;;16.00;99.90;;;;;;5029829;28;20041;-79
2022/07/01 07:17:58;;;;;;;34.05;25.98;;;16.00;99.90;;;;;;5049826;28;20052;-81
2022/07/01 07:20:27;;;;;;;37.45;25.38;;;16.00;99.90;;;;;;5039950;28;20649;-79
2022/07/01 07:22:53;;;;;;;32.97;24.25;;;16.00;99.90;;;;;;5066989;28;20052;-80
2022/07/01 07:25:19;;;;;;;34.95;24.65;;;15.90;99.90;;;;;;5034300;28;20049;-80
2022/07/01 07:27:46;;;;;;;32.70;24.15;;;15.90;99.90;;;;;;5049353;28;20631;-79
2022/07/01 07:30:18;;;;;;;36.65;24.80;;;16.00;99.90;;;;;;5063790;28;20104;-80
2022/07/01 07:32:45;;;;;;;33.10;24.67;;;16.00;99.90;;;;;;5040079;28;20052;-80
2022/07/01 07:35:11;;;;;;;35.30;24.70;;;16.00;99.90;;;;;;5048959;28;20045;-80
2022/07/01 07:37:37;;;;;;;36.00;24.67;;;15.90;99.90;;;;;;5035342;28;20036;-79
2022/07/01 07:40:06;;;;;;;37.70;24.92;;;16.00;99.90;;;;;;5034014;28;20067;-80
2022/07/01 07:42:32;;;;;;;35.33;24.77;;;16.00;99.90;;;;;;5048839;28;20119;-79
2022/07/01 07:44:58;;;;;;;31.92;23.98;;;16.00;99.90;;;;;;5049169;28;20384;-81
2022/07/01 07:47:24;;;;;;;32.60;23.35;;;16.00;99.90;;;;;;5066235;28;20092;-82
2022/07/01 07:49:50;;;;;;;33.33;24.10;;;16.00;99.90;;;;;;5017676;28;20052;-84
2022/07/01 07:52:15;;;;;;;36.58;24.13;;;16.00;99.90;;;;;;5034016;28;20041;-83
2022/07/01 07:54:41;;;;;;;32.20;22.52;;;16.00;99.90;;;;;;5043599;28;20094;-84
2022/07/01 07:57:07;;;;;;;32.97;23.13;;;16.10;99.90;;;;;;5020309;28;20049;-83
2022/07/01 07:59:33;;;;;;;32.58;23.02;;;16.10;99.90;;;;;;5025834;28;20059;-85
2022/07/01 08:01:59;;;;;;;30.67;23.52;;;16.20;99.90;;;;;;5022896;28;20080;-84
2022/07/01 08:04:25;;;;;;;36.65;23.92;;;16.30;99.90;;;;;;5027488;28;20041;-83
2022/07/01 08:06:51;;;;;;;32.17;22.55;;;16.40;99.90;;;;;;5007496;28;20044;-84
2022/07/01 08:09:17;;;;;;;33.92;23.13;;;16.50;99.90;;;;;;5040332;28;20037;-83
2022/07/01 08:11:42;;;;;;;30.60;21.30;;;16.50;99.90;;;;;;5012023;28;20041;-82
2022/07/01 08:14:08;;;;;;;34.05;22.50;;;16.50;99.90;;;;;;5034169;28;20048;-85
2022/07/01 08:16:34;;;;;;;36.38;22.02;;;16.60;99.90;;;;;;5038593;28;20129;-85
2022/07/01 08:19:01;;;;;;;31.17;21.25;;;16.60;99.90;;;;;;5065622;28;20052;-76
2022/07/01 08:21:27;;;;;;;27.38;21.00;;;16.80;99.90;;;;;;5048642;28;20049;-76
2022/07/01 08:23:53;;;;;;;32.10;20.25;;;16.90;99.90;;;;;;5018142;28;20549;-77
2022/07/01 08:26:18;;;;;;;25.90;19.30;;;17.00;99.90;;;;;;5016004;28;20051;-76
2022/07/01 08:28:44;;;;;;;23.70;18.98;;;17.00;99.90;;;;;;5032151;28;20056;-76
2022/07/01 08:31:10;;;;;;;26.45;19.05;;;17.00;99.90;;;;;;5046372;28;20057;-76
2022/07/01 08:33:37;;;;;;;27.23;19.52;;;17.00;99.90;;;;;;5038587;28;20044;-76
2022/07/01 08:36:07;;;;;;;26.10;19.33;;;17.10;99.90;;;;;;5063372;28;20048;-74
2022/07/01 08:38:33;;;;;;;29.30;19.98;;;17.20;99.90;;;;;;5055007;28;20045;-75
2022/07/01 08:41:00;;;;;;;26.30;19.27;;;17.40;99.90;;;;;;5048864;28;20051;-75
2022/07/01 08:43:26;;;;;;;24.42;18.98;;;17.40;99.90;;;;;;5049559;28;20082;-74
2022/07/01 08:45:52;;;;;;;25.27;18.73;;;17.60;99.90;;;;;;5064685;28;20055;-74
2022/07/01 08:48:18;;;;;;;25.42;18.85;;;17.60;99.90;;;;;;5034267;28;20417;-75
2022/07/01 08:50:44;;;;;;;23.17;18.00;;;17.70;99.90;;;;;;5029919;28;20080;-75
2022/07/01 08:53:11;;;;;;;22.77;16.95;;;18.10;99.90;;;;;;5047780;28;20519;-75
2022/07/01 08:58:24;;;;;;;21.10;15.43;;;18.20;99.90;;;;;;5060845;28;20477;-75
2022/07/01 09:00:50;;;;;;;22.05;14.52;;;18.40;99.90;;;;;;5034696;28;20041;-78
2022/07/01 09:03:20;;;;;;;18.20;12.57;;;18.60;99.90;;;;;;5035772;28;20051;-77
2022/07/01 09:05:51;;;;;;;17.67;12.18;;;18.80;99.90;;;;;;5065548;28;20424;-78
2022/07/01 09:08:17;;;;;;;16.80;12.45;;;19.00;99.90;;;;;;5030169;28;20503;-77
2022/07/01 09:10:43;;;;;;;18.83;12.52;;;19.20;99.90;;;;;;5049106;28;20032;-78
2022/07/01 09:13:12;;;;;;;18.40;12.50;;;19.40;99.90;;;;;;5064959;28;20047;-78
2022/07/01 09:15:40;;;;;;;17.88;12.15;;;19.50;99.90;;;;;;5063350;28;20101;-78
2022/07/01 09:18:20;;;;;;;14.38;11.45;;;19.40;99.90;;;;;;5063519;28;20052;-78
2022/07/01 09:20:48;;;;;;;15.45;12.13;;;19.50;99.90;;;;;;5048374;28;20049;-77
2022/07/01 09:23:18;;;;;;;15.98;11.32;;;19.50;99.90;;;;;;5035939;28;20048;-77
2022/07/01 09:25:47;;;;;;;14.02;10.18;;;19.70;99.90;;;;;;5037771;28;20079;-77
2022/07/01 09:28:21;;;;;;;15.85;11.98;;;19.70;99.90;;;;;;5063488;28;20044;-79
2022/07/01 09:30:58;;;;;;;14.98;9.98;;;19.90;99.90;;;;;;5064807;28;20036;-79
2022/07/01 09:33:28;;;;;;;14.23;10.52;;;19.80;99.90;;;;;;5060295;28;20065;-80
2022/07/01 09:35:55;;;;;;;16.85;11.07;;;19.80;99.90;;;;;;5072244;28;20102;-77
2022/07/01 09:38:24;;;;;;;11.60;9.20;;;19.70;99.90;;;;;;5063187;28;20405;-77
2022/07/01 09:40:56;;;;;;;12.50;9.50;;;19.60;99.90;;;;;;5058636;28;20504;-77
2022/07/01 09:43:25;;;;;;;12.27;9.60;;;19.30;99.90;;;;;;5053148;28;20041;-77
2022/07/01 09:46:01;;;;;;;11.35;9.48;;;19.10;99.90;;;;;;5068521;28;20060;-77
2022/07/01 09:48:42;;;;;;;14.52;9.32;;;19.00;99.90;;;;;;5043370;28;20059;-77
2022/07/01 09:51:10;;;;;;;14.07;9.18;;;18.80;99.90;;;;;;5046860;28;20045;-77
2022/07/01 09:53:36;;;;;;;15.90;10.05;;;18.80;99.90;;;;;;5046702;28;20048;-77
2022/07/01 09:56:02;;;;;;;14.85;9.77;;;18.80;99.90;;;;;;5039469;28;20044;-75
2022/07/01 09:58:28;;;;;;;15.63;9.40;;;18.80;99.90;;;;;;5036126;28;20514;-75
2022/07/01 10:00:54;;;;;;;12.48;9.30;;;19.00;99.90;;;;;;5044451;28;20058;-76
2022/07/01 10:03:23;;;;;;;12.90;9.35;;;19.00;99.90;;;;;;5056044;28;20048;-74
2022/07/01 10:06:08;;;;;;;9.95;8.23;;;19.10;99.90;;;;;;5070414;28;20514;-81
2022/07/01 10:08:55;;;;;;;12.70;8.45;;;19.10;99.90;;;;;;5049690;28;20112;-75
2022/07/01 10:12:01;;;;;;;13.20;8.60;;;19.10;99.90;;;;;;5067899;28;20076;-76
2022/07/01 10:14:28;;;;;;;8.95;7.15;;;19.00;99.90;;;;;;5077839;28;20052;-76
2022/07/01 10:16:54;;;;;;;10.45;7.88;;;19.00;99.90;;;;;;5044251;28;20060;-77
2022/07/01 10:19:24;;;;;;;13.65;8.18;;;19.10;99.90;;;;;;5060797;28;20044;-77
2022/07/01 10:21:56;;;;;;;14.48;8.00;;;19.30;99.90;;;;;;5064106;28;20051;-76
2022/07/01 10:24:24;;;;;;;10.40;7.35;;;19.60;99.90;;;;;;5068411;28;20099;-77
2022/07/01 10:26:50;;;;;;;9.75;6.53;;;19.50;99.90;;;;;;5073768;28;20040;-77
2022/07/01 10:29:36;;;;;;;8.27;6.20;;;19.50;99.90;;;;;;5065351;28;20052;-76
2022/07/01 10:32:11;;;;;;;11.68;7.35;;;19.50;99.90;;;;;;5068747;28;20611;-75
2022/07/01 10:34:41;;;;;;;11.23;7.35;;;19.30;99.90;;;;;;5068100;28;20059;-75
2022/07/01 10:37:09;;;;;;;19.25;17.48;;;19.10;99.90;;;;;;5072424;28;20105;-75
2022/07/01 10:39:53;;;;;;;11.43;7.80;;;19.00;99.90;;;;;;5059910;28;20059;-75
2022/07/01 10:42:19;;;;;;;10.80;7.45;;;19.00;99.90;;;;;;5056107;28;20279;-76
2022/07/01 10:45:01;;;;;;;10.50;7.60;;;19.20;99.90;;;;;;5059048;28;20038;-75
2022/07/01 10:47:27;;;;;;;10.02;7.00;;;19.50;99.90;;;;;;5050382;28;20057;-75
2022/07/01 10:49:59;;;;;;;7.93;6.28;;;19.50;99.90;;;;;;5051303;28;20110;-76
2022/07/01 10:52:25;;;;;;;11.52;6.30;;;19.60;99.90;;;;;;5060081;28;20064;-75
2022/07/01 10:54:55;;;;;;;9.30;6.50;;;19.80;99.90;;;;;;5056551;28;20040;-76
2022/07/01 10:57:28;;;;;;;9.90;6.47;;;19.80;99.90;;;;;;5069250;28;20056;-76
2022/07/01 11:00:00;;;;;;;7.72;6.30;;;19.70;99.90;;;;;;5074543;28;20531;-76
2022/07/01 11:02:29;;;;;;;11.25;5.53;;;19.70;99.90;;;;;;5058353;28;20049;-76
2022/07/01 11:05:02;;;;;;;5.15;4.65;;;19.80;99.90;;;;;;5067337;28;20068;-75
2022/07/01 11:07:33;;;;;;;6.70;4.97;;;20.00;99.90;;;;;;5075180;28;20047;-76
2022/07/01 11:10:01;;;;;;;7.43;6.00;;;20.10;99.90;;;;;;5074923;28;20095;-75
2022/07/01 11:12:29;;;;;;;7.65;6.10;;;20.30;99.90;;;;;;5058532;28;20305;-75
2022/07/01 11:14:58;;;;;;;7.65;5.90;;;20.40;99.90;;;;;;5058896;28;20083;-76
2022/07/01 11:17:25;;;;;;;9.13;6.75;;;20.70;99.90;;;;;;5072141;28;20063;-76
2022/07/01 11:19:53;;;;;;;8.07;6.45;;;20.90;99.90;;;;;;5043918;28;20045;-76
2022/07/01 11:22:24;;;;;;;8.98;6.20;;;21.20;99.90;;;;;;5023151;28;20048;-76
2022/07/01 11:24:55;;;;;;;7.50;5.90;;;21.20;99.90;;;;;;5072950;28;20676;-76
2022/07/01 11:27:22;;;;;;;9.70;5.88;;;21.30;99.90;;;;;;5076327;28;20542;-76
2022/07/01 11:29:56;;;;;;;9.25;5.63;;;21.10;99.90;;;;;;5071895;28;20429;-76
2022/07/01 11:32:30;;;;;;;7.88;5.20;;;21.10;99.90;;;;;;5071055;28;20075;-76
2022/07/01 11:34:59;;;;;;;6.43;4.80;;;21.20;99.90;;;;;;5058155;28;20044;-76
2022/07/01 11:40:18;;;;;;;4.80;4.05;;;21.10;99.90;;;;;;5075102;28;20044;-76
2022/07/01 11:42:45;;;;;;;6.43;4.03;;;21.50;99.90;;;;;;5058195;28;20103;-76
2022/07/01 11:45:31;;;;;;;5.18;4.40;;;21.80;99.90;;;;;;5054133;28;20048;-75
2022/07/01 11:47:56;;;;;;;3.78;3.47;;;22.10;99.90;;;;;;5036780;28;20060;-75
2022/07/01 11:50:22;;;;;;;6.25;4.03;;;22.10;99.90;;;;;;5026466;28;20032;-76
2022/07/01 11:52:48;;;;;;;7.65;4.50;;;22.10;99.90;;;;;;5052269;28;20500;-76
2022/07/01 11:55:19;;;;;;;6.65;3.92;;;22.20;99.90;;;;;;5032629;28;20081;-76
2022/07/01 11:57:44;;;;;;;5.00;4.10;;;22.20;99.90;;;;;;5062103;28;20041;-76
2022/07/01 12:00:12;;;;;;;4.32;3.15;;;22.00;99.90;;;;;;5049682;28;20056;-76
2022/07/01 12:02:38;;;;;;;4.90;3.53;;;21.70;99.90;;;;;;5074913;28;20051;-76
2022/07/01 12:05:05;;;;;;;5.20;2.90;;;21.40;99.90;;;;;;5074159;28;20536;-75
2022/07/01 12:07:34;;;;;;;6.13;2.90;;;21.20;99.90;;;;;;5051595;28;20243;-76
2022/07/01 12:10:01;;;;;;;6.43;2.75;;;21.00;99.90;;;;;;5074460;28;20057;-76
2022/07/01 12:12:27;;;;;;;4.15;2.60;;;20.90;99.90;;;;;;5030405;28;20045;-76
2022/07/01 12:14:55;;;;;;;4.63;2.35;;;20.70;99.90;;;;;;5068171;28;20035;-76
2022/07/01 12:17:21;;;;;;;4.93;2.22;;;20.60;99.90;;;;;;5024696;28;20383;-76
2022/07/01 12:19:48;;;;;;;3.97;2.20;;;20.80;99.90;;;;;;5056311;28;20029;-75
2022/07/01 12:22:19;;;;;;;2.95;2.33;;;21.20;99.90;;;;;;5074464;28;20602;-75
2022/07/01 12:24:46;;;;;;;6.30;2.40;;;21.40;99.90;;;;;;5074071;28;20350;-75
2022/07/01 12:27:12;;;;;;;3.45;2.58;;;21.20;99.90;;;;;;5040849;28;20044;-75
2022/07/01 12:29:49;;;;;;;3.50;2.10;;;21.10;99.90;;;;;;5067588;28;20075;-75
2022/07/01 12:32:22;;;;;;;5.88;2.50;;;21.20;99.90;;;;;;5052140;28;20057;-76
2022/07/01 12:34:49;;;;;;;2.17;1.98;;;21.30;99.90;;;;;;5072962;28;20052;-75
2022/07/01 12:37:21;;;;;;;4.90;1.92;;;21.10;99.90;;;;;;5073790;28;20057;-76
2022/07/01 12:39:51;;;;;;;;;;;21.00;99.90;;;;;;5075223;28;20048;-76
2022/07/01 12:42:22;;;;;;;3.97;1.80;;;20.90;99.90;;;;;;5043215;28;20295;-76
2022/07/01 12:44:48;;;;;;;4.18;1.52;;;21.10;99.90;;;;;;5051772;28;20114;-75
2022/07/01 12:47:24;;;;;;;3.88;2.33;;;21.30;99.90;;;;;;5073856;28;20119;-77
2022/07/01 12:50:07;;;;;;;4.32;2.42;;;21.50;99.90;;;;;;5073287;28;20060;-76
2022/07/01 12:52:33;;;;;;;4.47;2.33;;;21.70;99.90;;;;;;5073651;28;20037;-75
2022/07/01 12:54:59;;;;;;;3.90;1.90;;;21.80;99.90;;;;;;5041549;28;20055;-75
2022/07/01 12:57:32;;;;;;;2.58;1.73;;;21.70;99.90;;;;;;5065377;28;20527;-76